Terminal Aerodrome Forecast
Issued by NWS

Home | Current Version | Previous Version | Text Only | Print | Product List | Glossary On
Versions: 1 2 3 4 5 6 7 8 9 10 11 12 13 14 15 16 17 18 19 20 21 22
000
FTUS46 KSGX 201514 AAA
TAFSAN
TAF AMD
KSAN 201514Z 2015/2118 20012KT 6SM -RA BR SCT010 OVC025
     FM201900 18020G30KT 4SM RA BR VCTS SCT008 OVC015CB
      TEMPO 2023/2102 22025G45KT 1SM +TSRA OVC008CB
     FM210300 28020G30KT 3SM SHRA BR BKN015
     FM210500 27018G30KT 6SM -SHRA BR BKN025
     FM211000 28013G22KT P6SM VCSH SCT025 OVC150=

USA.gov is the U.S. government's official web portal to all federal, state and local government web resources and services.